Time;durP1;ratioP1;P1;durP2;ratioP2;P2;SDS_P1;SDS_P2;PMS_P1;PMS_P2;Temp;Humidity;BMP_temperature;BMP_pressure;BME280_temperature;BME280_humidity;BME280_pressure;Samples;Min_cycle;Max_cycle;Signal;HPM_P1;HPM_P2
2022/09/21 00:01:14;;;;;;;3.58;2.40;;;7.10;99.90;;;;;;5030478;28;20581;-68
2022/09/21 00:03:41;;;;;;;2.13;1.92;;;7.10;99.90;;;;;;5093518;22;20577;-69
2022/09/21 00:06:10;;;;;;;2.60;2.38;;;7.00;99.90;;;;;;5010809;28;20202;-70
2022/09/21 00:08:38;;;;;;;4.32;2.45;;;7.00;99.90;;;;;;5010783;28;20231;-70
2022/09/21 00:11:07;;;;;;;5.07;2.85;;;7.00;99.90;;;;;;5010805;28;20710;-70
2022/09/21 00:13:36;;;;;;;2.65;1.90;;;7.00;99.90;;;;;;5010299;28;20724;-70
2022/09/21 00:16:05;;;;;;;2.75;1.80;;;6.90;99.90;;;;;;5010845;28;20254;-68
2022/09/21 00:18:34;;;;;;;2.72;1.90;;;6.90;99.90;;;;;;5011027;28;20600;-68
2022/09/21 00:21:01;;;;;;;2.58;2.20;;;6.90;99.90;;;;;;5010475;28;20210;-67
2022/09/21 00:23:28;;;;;;;3.22;2.30;;;6.90;99.90;;;;;;5010526;28;20221;-67
2022/09/21 00:26:06;;;;;;;4.57;2.17;;;6.90;99.90;;;;;;5010571;28;20234;-68
2022/09/21 00:28:33;;;;;;;1.98;1.75;;;6.80;99.90;;;;;;5010726;28;20703;-68
2022/09/21 00:31:02;;;;;;;2.20;2.00;;;6.80;99.90;;;;;;5010589;28;20198;-68
2022/09/21 00:33:29;;;;;;;5.47;2.10;;;6.80;99.90;;;;;;5010568;28;20309;-68
2022/09/21 00:35:55;;;;;;;2.30;1.88;;;6.70;99.90;;;;;;5010442;28;20725;-68
2022/09/21 00:38:22;;;;;;;4.95;2.28;;;6.70;99.90;;;;;;5010621;28;20659;-68
2022/09/21 00:40:49;;;;;;;2.72;2.38;;;6.70;99.90;;;;;;5010563;28;20256;-67
2022/09/21 00:43:18;;;;;;;7.95;2.33;;;6.70;99.90;;;;;;5009686;28;20219;-68
2022/09/21 00:45:48;;;;;;;2.50;2.13;;;6.70;99.90;;;;;;5013038;28;20668;-68
2022/09/21 00:48:15;;;;;;;2.42;2.22;;;6.70;99.90;;;;;;5013903;28;20236;-68
2022/09/21 00:50:54;;;;;;;3.90;2.28;;;6.60;99.90;;;;;;5014184;28;20257;-67
2022/09/21 00:53:21;;;;;;;2.20;1.70;;;6.60;99.90;;;;;;5013348;28;20227;-68
2022/09/21 00:55:51;;;;;;;2.15;1.77;;;6.60;99.90;;;;;;5014416;28;20591;-67
2022/09/21 00:58:26;;;;;;;3.05;2.20;;;6.60;99.90;;;;;;5013695;28;20690;-67
2022/09/21 01:00:54;;;;;;;4.13;2.30;;;6.50;99.90;;;;;;5014240;28;20205;-68
2022/09/21 01:03:21;;;;;;;3.63;2.25;;;6.50;99.90;;;;;;5013189;28;20234;-68
2022/09/21 01:05:47;;;;;;;2.78;2.00;;;6.50;99.90;;;;;;5013683;28;20693;-68
2022/09/21 01:08:16;;;;;;;2.83;1.90;;;6.40;99.90;;;;;;5014069;28;20219;-68
2022/09/21 01:10:58;;;;;;;3.47;2.20;;;6.40;99.90;;;;;;5013608;28;20236;-68
2022/09/21 01:13:36;;;;;;;3.75;1.92;;;6.40;99.90;;;;;;5013148;28;20227;-68
2022/09/21 01:16:11;;;;;;;1.95;1.60;;;6.40;99.90;;;;;;5013717;28;20202;-68
2022/09/21 01:18:46;;;;;;;2.03;1.83;;;6.40;99.90;;;;;;5013553;28;20700;-68
2022/09/21 01:21:20;;;;;;;5.13;1.95;;;6.40;99.90;;;;;;5013077;28;20368;-68
2022/09/21 01:24:17;;;;;;;2.35;1.70;;;6.40;99.90;;;;;;5013666;28;20725;-69
2022/09/21 01:27:24;;;;;;;1.95;1.77;;;6.40;99.90;;;;;;5013324;28;20214;-68
2022/09/21 01:29:58;;;;;;;2.00;1.80;;;6.40;99.90;;;;;;5013679;28;20265;-68
2022/09/21 01:32:29;;;;;;;2.10;1.80;;;6.30;99.90;;;;;;5012584;28;20206;-68
2022/09/21 01:35:02;;;;;;;6.53;2.42;;;6.30;99.90;;;;;;5013506;28;20690;-68
2022/09/21 01:37:35;;;;;;;6.45;2.78;;;6.30;99.90;;;;;;5013116;28;20685;-68
2022/09/21 01:40:09;;;;;;;2.45;2.20;;;6.20;99.90;;;;;;5013422;28;20218;-68
2022/09/21 01:42:38;;;;;;;2.63;2.20;;;6.20;99.90;;;;;;5012535;28;20812;-68
2022/09/21 01:45:11;;;;;;;3.58;2.45;;;6.20;99.90;;;;;;5013076;28;20207;-68
2022/09/21 01:47:40;;;;;;;2.00;1.67;;;6.20;99.90;;;;;;5013102;28;20317;-69
2022/09/21 01:50:10;;;;;;;2.20;1.80;;;6.20;99.90;;;;;;5012907;28;20212;-68
2022/09/21 01:52:42;;;;;;;3.85;2.60;;;6.20;99.90;;;;;;5012397;28;20213;-68
2022/09/21 01:55:13;;;;;;;3.03;2.72;;;6.20;99.90;;;;;;5012760;28;20673;-68
2022/09/21 01:57:44;;;;;;;2.72;2.28;;;6.20;99.90;;;;;;5012848;28;20207;-68
2022/09/21 02:00:14;;;;;;;2.40;2.20;;;6.10;99.90;;;;;;5012783;28;20221;-69
2022/09/21 02:02:46;;;;;;;3.95;2.15;;;6.20;99.90;;;;;;5012016;28;20218;-68
2022/09/21 02:05:15;;;;;;;5.28;2.28;;;6.10;99.90;;;;;;5013007;28;20257;-68
2022/09/21 02:07:42;;;;;;;3.45;2.05;;;6.10;99.90;;;;;;5012509;28;20242;-68
2022/09/21 02:10:15;;;;;;;2.38;1.88;;;6.10;99.90;;;;;;5012920;28;20207;-68
2022/09/21 02:12:42;;;;;;;2.25;1.95;;;6.00;99.90;;;;;;5011779;28;20735;-68
2022/09/21 02:15:10;;;;;;;2.08;1.73;;;6.10;99.90;;;;;;5012766;28;20689;-69
2022/09/21 02:17:47;;;;;;;2.50;1.92;;;6.00;99.90;;;;;;5012322;28;20663;-68
2022/09/21 02:20:19;;;;;;;2.33;1.83;;;6.00;99.90;;;;;;5012568;28;20203;-68
2022/09/21 02:22:59;;;;;;;3.60;2.00;;;6.00;99.90;;;;;;5011689;28;20231;-68
2022/09/21 02:25:38;;;;;;;2.30;2.08;;;6.00;99.90;;;;;;5012427;28;20686;-68
2022/09/21 02:28:11;;;;;;;2.30;2.08;;;6.00;99.90;;;;;;5012296;28;20223;-68
2022/09/21 02:30:40;;;;;;;2.40;2.15;;;5.90;99.90;;;;;;5012262;28;20212;-68
2022/09/21 02:33:12;;;;;;;2.60;2.40;;;5.90;99.90;;;;;;5012010;28;20223;-69
2022/09/21 02:35:44;;;;;;;4.70;2.47;;;5.90;99.90;;;;;;5012003;28;20211;-69
2022/09/21 02:38:17;;;;;;;2.80;2.10;;;5.90;99.90;;;;;;5012354;28;20214;-69
2022/09/21 02:40:52;;;;;;;2.75;2.25;;;5.90;99.90;;;;;;5011170;28;20218;-69
2022/09/21 02:43:26;;;;;;;3.28;2.80;;;5.90;99.90;;;;;;5011661;28;20229;-68
2022/09/21 02:45:57;;;;;;;3.10;2.80;;;5.80;99.90;;;;;;5011848;28;20206;-68
2022/09/21 02:48:31;;;;;;;2.65;2.10;;;5.80;99.90;;;;;;5012143;28;20230;-69
2022/09/21 02:51:03;;;;;;;2.85;2.38;;;5.80;99.90;;;;;;5011768;28;20213;-68
2022/09/21 02:53:35;;;;;;;3.72;2.63;;;5.80;99.90;;;;;;5011369;28;20223;-68
2022/09/21 02:56:06;;;;;;;3.85;2.60;;;5.70;99.90;;;;;;5011966;28;20203;-68
2022/09/21 02:58:36;;;;;;;2.30;2.00;;;5.70;99.90;;;;;;5011628;28;20200;-68
2022/09/21 03:01:07;;;;;;;3.75;2.05;;;5.60;99.90;;;;;;5011899;28;20199;-68
2022/09/21 03:03:35;;;;;;;2.78;2.10;;;5.70;99.90;;;;;;5010891;28;20235;-68
2022/09/21 03:06:02;;;;;;;3.42;2.70;;;5.70;99.90;;;;;;5011985;28;20240;-69
2022/09/21 03:08:29;;;;;;;5.50;2.42;;;5.60;99.90;;;;;;5010627;28;20219;-68
2022/09/21 03:10:56;;;;;;;4.28;2.50;;;5.60;99.90;;;;;;5011778;28;20238;-68
2022/09/21 03:13:23;;;;;;;2.65;2.40;;;5.60;99.90;;;;;;5010818;28;20270;-68
2022/09/21 03:15:58;;;;;;;2.22;2.03;;;5.60;99.90;;;;;;5011831;28;20209;-68
2022/09/21 03:18:25;;;;;;;2.00;1.75;;;5.50;99.90;;;;;;5011597;28;20203;-68
2022/09/21 03:20:53;;;;;;;2.75;2.20;;;5.50;99.90;;;;;;5011613;28;20199;-68
2022/09/21 03:23:19;;;;;;;2.85;2.38;;;5.50;99.90;;;;;;5011075;28;20230;-68
2022/09/21 03:25:47;;;;;;;2.25;2.03;;;5.50;99.90;;;;;;5010572;28;20212;-68
2022/09/21 03:28:14;;;;;;;3.20;2.83;;;5.50;99.90;;;;;;5010740;28;20221;-68
2022/09/21 03:30:42;;;;;;;3.67;2.30;;;5.40;99.90;;;;;;5010886;28;20203;-69
2022/09/21 03:33:09;;;;;;;1.80;1.52;;;5.40;99.90;;;;;;5010606;28;20223;-68
2022/09/21 03:35:36;;;;;;;2.58;2.10;;;5.40;99.90;;;;;;5009843;28;20211;-68
2022/09/21 03:38:05;;;;;;;3.50;2.45;;;5.40;99.90;;;;;;5008848;28;20211;-69
2022/09/21 03:40:32;;;;;;;3.25;2.22;;;5.40;99.90;;;;;;5009051;28;20245;-68
2022/09/21 03:42:59;;;;;;;2.75;2.20;;;5.40;99.90;;;;;;5004617;28;20221;-68
2022/09/21 03:45:26;;;;;;;2.83;2.58;;;5.40;99.90;;;;;;5000280;28;20201;-68
2022/09/21 03:47:55;;;;;;;2.92;2.20;;;5.40;99.90;;;;;;4998678;28;20282;-68
2022/09/21 03:50:22;;;;;;;2.75;2.50;;;5.40;99.90;;;;;;5000365;28;20241;-69
2022/09/21 03:52:49;;;;;;;2.60;2.30;;;5.40;99.90;;;;;;4999664;28;20690;-68
2022/09/21 03:55:17;;;;;;;2.40;2.20;;;5.40;99.90;;;;;;4999704;28;20196;-68
2022/09/21 03:57:44;;;;;;;2.53;2.33;;;5.40;99.90;;;;;;5008058;28;20203;-68
2022/09/21 04:00:12;;;;;;;3.80;2.55;;;5.40;99.90;;;;;;5009680;28;20680;-69
2022/09/21 04:02:39;;;;;;;4.50;2.50;;;5.40;99.90;;;;;;5006499;28;20686;-69
2022/09/21 04:05:07;;;;;;;4.10;3.10;;;5.40;99.90;;;;;;4996892;28;20206;-68
2022/09/21 04:07:35;;;;;;;2.55;2.25;;;5.40;99.90;;;;;;5002025;28;20234;-68
2022/09/21 04:10:02;;;;;;;2.88;2.60;;;5.40;99.90;;;;;;5000115;28;20200;-69
2022/09/21 04:12:30;;;;;;;3.42;2.72;;;5.40;99.90;;;;;;5000191;28;20211;-69
2022/09/21 04:14:57;;;;;;;2.58;2.38;;;5.30;99.90;;;;;;5001464;28;20196;-68
2022/09/21 04:17:23;;;;;;;2.65;2.45;;;5.30;99.90;;;;;;5010402;28;20202;-69
2022/09/21 04:19:50;;;;;;;3.45;2.95;;;5.30;99.90;;;;;;4999567;28;20203;-70
2022/09/21 04:22:17;;;;;;;3.88;2.88;;;5.30;99.90;;;;;;5003054;28;20191;-69
2022/09/21 04:24:44;;;;;;;2.97;2.65;;;5.30;99.90;;;;;;5014708;28;20647;-70
2022/09/21 04:27:12;;;;;;;3.80;3.03;;;5.30;99.90;;;;;;5016734;28;20210;-70
2022/09/21 04:29:40;;;;;;;2.80;2.60;;;5.30;99.90;;;;;;5012636;28;20269;-70
2022/09/21 04:32:07;;;;;;;2.67;2.47;;;5.30;99.90;;;;;;5011638;28;20203;-70
2022/09/21 04:34:35;;;;;;;2.92;2.65;;;5.30;99.90;;;;;;5011934;28;20227;-69
2022/09/21 04:37:01;;;;;;;4.20;3.05;;;5.20;99.90;;;;;;5012287;28;20748;-70
2022/09/21 04:39:28;;;;;;;3.88;3.30;;;5.20;99.90;;;;;;5011731;28;20678;-70
2022/09/21 04:41:55;;;;;;;4.25;2.80;;;5.20;99.90;;;;;;5011313;28;20663;-71
2022/09/21 04:44:22;;;;;;;3.20;2.58;;;5.20;99.90;;;;;;5014523;28;20252;-70
2022/09/21 04:46:50;;;;;;;3.92;2.95;;;5.20;99.90;;;;;;5014315;28;20215;-69
2022/09/21 04:49:17;;;;;;;4.15;3.00;;;5.20;99.90;;;;;;5014491;28;20577;-70
2022/09/21 04:51:43;;;;;;;3.15;2.50;;;5.20;99.90;;;;;;5013816;28;20209;-70
2022/09/21 04:54:10;;;;;;;5.10;3.22;;;5.20;99.90;;;;;;5014401;28;20225;-70
2022/09/21 04:56:37;;;;;;;4.85;3.30;;;5.10;99.90;;;;;;5014205;28;20234;-70
2022/09/21 04:59:04;;;;;;;4.47;3.50;;;5.10;99.90;;;;;;5014078;28;20207;-70
2022/09/21 05:01:31;;;;;;;4.35;4.00;;;5.10;99.90;;;;;;5013640;28;20228;-70
2022/09/21 05:04:01;;;;;;;4.30;3.50;;;5.10;99.90;;;;;;5013931;28;20240;-70
2022/09/21 05:06:28;;;;;;;4.50;3.35;;;5.10;99.90;;;;;;5014103;28;20685;-70
2022/09/21 05:11:40;;;;;;;6.03;3.80;;;5.10;99.90;;;;;;5013538;28;20204;-70
2022/09/21 05:14:06;;;;;;;7.25;4.25;;;5.10;99.90;;;;;;5013921;28;20766;-70
2022/09/21 05:16:33;;;;;;;5.55;3.08;;;5.00;99.90;;;;;;5013995;28;20208;-70
2022/09/21 05:19:02;;;;;;;3.53;3.15;;;5.00;99.90;;;;;;5013993;28;20221;-70
2022/09/21 05:21:30;;;;;;;4.55;3.70;;;5.00;99.90;;;;;;5012882;28;20212;-70
2022/09/21 05:23:57;;;;;;;4.40;3.72;;;5.00;99.90;;;;;;5013808;28;20281;-70
2022/09/21 05:26:24;;;;;;;4.75;3.70;;;5.00;99.90;;;;;;5013451;28;20200;-69
2022/09/21 05:28:52;;;;;;;5.05;3.90;;;5.00;99.90;;;;;;5013752;28;20232;-70
2022/09/21 05:31:35;;;;;;;6.78;3.65;;;5.00;99.90;;;;;;5012189;28;20200;-69
2022/09/21 05:34:11;;;;;;;5.25;3.83;;;5.00;99.90;;;;;;5013276;28;20219;-69
2022/09/21 05:36:46;;;;;;;4.80;4.25;;;5.00;99.90;;;;;;5013208;28;20216;-69
2022/09/21 05:39:13;;;;;;;6.15;3.90;;;5.00;99.90;;;;;;5013625;28;20204;-70
2022/09/21 05:41:40;;;;;;;7.65;4.97;;;5.00;99.90;;;;;;5012743;28;20616;-69
2022/09/21 05:44:10;;;;;;;5.65;4.10;;;5.10;99.90;;;;;;5013236;28;20231;-69
2022/09/21 05:46:39;;;;;;;5.80;4.10;;;5.10;99.90;;;;;;5013463;28;20300;-69
2022/09/21 05:49:17;;;;;;;6.50;5.10;;;5.10;99.90;;;;;;5012905;28;20223;-70
2022/09/21 05:51:56;;;;;;;9.05;5.55;;;5.10;99.90;;;;;;5012886;28;20211;-69
2022/09/21 05:54:32;;;;;;;7.63;5.10;;;5.10;99.90;;;;;;5013041;28;20219;-70
2022/09/21 05:57:05;;;;;;;14.98;6.35;;;5.20;99.90;;;;;;5013081;28;20213;-69
2022/09/21 05:59:48;;;;;;;8.85;4.68;;;5.20;99.90;;;;;;5012904;28;20204;-69
2022/09/21 06:02:25;;;;;;;10.63;5.35;;;5.30;99.90;;;;;;5012719;28;20207;-69
2022/09/21 06:04:57;;;;;;;7.93;5.25;;;5.30;99.90;;;;;;5067209;23;20222;-93
2022/09/21 06:07:24;;;;;;;7.55;4.88;;;5.30;99.90;;;;;;5048820;28;20237;-93
2022/09/21 06:09:51;;;;;;;9.07;5.50;;;5.40;99.90;;;;;;5048994;28;20240;-92
2022/09/21 06:12:18;;;;;;;5.97;5.05;;;5.40;99.90;;;;;;5048136;28;20210;-92
2022/09/21 06:14:45;;;;;;;8.60;5.43;;;5.40;99.90;;;;;;5048139;28;20237;-93
2022/09/21 06:17:12;;;;;;;6.35;5.38;;;5.40;99.90;;;;;;5048320;28;20212;-93
2022/09/21 06:19:39;;;;;;;11.38;5.88;;;5.50;99.90;;;;;;5048500;28;20209;-91
2022/09/21 06:22:07;;;;;;;6.57;5.93;;;5.60;99.90;;;;;;5046933;28;20212;-94
2022/09/21 06:24:36;;;;;;;12.48;5.80;;;5.60;99.90;;;;;;5046743;28;20226;-92
2022/09/21 06:27:03;;;;;;;11.32;7.00;;;5.70;99.90;;;;;;5045474;28;20229;-93
2022/09/21 06:29:30;;;;;;;9.30;5.72;;;5.80;99.90;;;;;;5046710;28;20222;-92
2022/09/21 06:38:41;;;;;;;5.70;4.47;;;6.10;99.90;;;;;;5051830;28;20162;-92
2022/09/21 06:44:48;;;;;;;6.38;5.25;;;6.40;99.90;;;;;;4926817;29;20734;-92
2022/09/21 06:47:22;;;;;;;9.57;6.03;;;6.60;99.90;;;;;;4942462;28;20235;-93
2022/09/21 06:49:56;;;;;;;6.18;4.70;;;6.70;99.90;;;;;;4984241;28;20300;-92
2022/09/21 07:06:57;;;;;;;6.57;5.63;;;7.50;99.90;;;;;;5042455;28;20205;-92
2022/09/21 07:10:06;;;;;;;9.13;6.15;;;7.70;99.90;;;;;;5045433;28;20226;-92
2022/09/21 07:12:36;;;;;;;7.60;5.38;;;7.80;99.90;;;;;;5043125;28;20238;-93
2022/09/21 07:15:08;;;;;;;6.28;5.63;;;8.00;99.90;;;;;;5044925;28;20228;-93
2022/09/21 07:17:36;;;;;;;6.18;5.43;;;8.10;99.90;;;;;;5044715;28;20281;-92
2022/09/21 07:20:06;;;;;;;5.05;4.53;;;8.20;99.90;;;;;;5045614;28;20202;-92
2022/09/21 07:22:39;;;;;;;7.53;4.93;;;8.40;99.90;;;;;;5044835;28;20251;-92
2022/09/21 07:25:06;;;;;;;5.97;4.40;;;8.50;99.90;;;;;;5044968;28;20669;-93
2022/09/21 07:27:34;;;;;;;8.23;4.70;;;8.70;99.90;;;;;;5044329;28;20211;-93
2022/09/21 07:42:47;;;;;;;4.20;3.40;;;9.60;99.90;;;;;;5043138;28;20197;-92
2022/09/21 07:45:14;;;;;;;5.43;3.58;;;9.80;99.90;;;;;;5044723;28;20341;-93
2022/09/21 07:47:40;;;;;;;5.03;4.13;;;10.00;99.90;;;;;;5046147;28;20213;-93
2022/09/21 07:50:08;;;;;;;3.30;2.85;;;10.20;99.90;;;;;;5049370;28;20225;-93
2022/09/21 07:52:36;;;;;;;3.88;3.47;;;10.30;99.90;;;;;;5048823;28;20209;-93
2022/09/21 07:55:04;;;;;;;6.72;3.70;;;10.40;99.90;;;;;;5054537;28;20273;-93
2022/09/21 08:00:19;;;;;;;3.70;3.40;;;10.70;99.90;;;;;;5044610;28;20197;-92
2022/09/21 08:02:45;;;;;;;4.25;3.10;;;10.80;99.90;;;;;;5043922;28;20206;-93
2022/09/21 08:05:13;;;;;;;4.32;2.70;;;10.60;99.90;;;;;;5043113;28;20675;-94
2022/09/21 08:07:42;;;;;;;4.22;2.65;;;10.70;99.90;;;;;;5044712;28;20202;-93
2022/09/21 08:10:09;;;;;;;3.03;2.72;;;10.80;99.90;;;;;;5044582;28;20225;-93
2022/09/21 08:12:36;;;;;;;3.97;2.28;;;11.00;99.90;;;;;;5044268;28;20202;-94
2022/09/21 08:15:04;;;;;;;3.92;2.33;;;11.20;99.90;;;;;;5044952;28;20312;-93
2022/09/21 08:17:31;;;;;;;2.53;2.15;;;11.50;99.90;;;;;;5045858;28;20278;-93
2022/09/21 08:20:02;;;;;;;4.75;2.80;;;11.70;99.90;;;;;;5046924;28;20208;-95
2022/09/21 08:25:11;;;;;;;4.22;1.98;;;12.00;99.90;;;;;;5049403;28;20222;-93
2022/09/21 08:30:19;;;;;;;2.35;1.80;;;12.20;99.90;;;;;;5039109;28;20210;-92
2022/09/21 08:32:46;;;;;;;3.05;2.10;;;12.40;99.90;;;;;;5046734;28;20269;-93
2022/09/21 08:35:13;;;;;;;2.08;1.80;;;12.50;99.90;;;;;;5046253;28;20230;-93
2022/09/21 08:43:16;;;;;;;3.50;2.00;;;12.90;99.90;;;;;;5048909;28;20449;-93
2022/09/21 08:55:04;;;;;;;1.90;1.50;;;13.60;99.90;;;;;;5046657;28;20515;-93
2022/09/21 08:58:12;;;;;;;2.30;1.47;;;13.80;99.90;;;;;;5047599;28;20456;-93
2022/09/21 09:00:42;;;;;;;2.23;2.03;;;14.00;99.90;;;;;;5046546;28;20487;-93
2022/09/21 09:03:41;;;;;;;1.30;1.17;;;14.20;99.90;;;;;;5046214;28;20465;-92
2022/09/21 09:06:19;;;;;;;2.77;1.30;;;14.40;99.90;;;;;;5048340;28;20459;-93
2022/09/21 09:09:04;;;;;;;2.23;1.60;;;14.40;99.90;;;;;;5049457;28;20523;-93
2022/09/21 09:11:56;;;;;;;3.10;1.40;;;14.60;99.90;;;;;;5049556;28;20539;-92
2022/09/21 09:18:08;;;;;;;1.93;1.10;;;14.90;99.90;;;;;;5047865;28;20472;-93
2022/09/21 09:20:39;;;;;;;3.73;1.40;;;15.10;99.90;;;;;;5054807;28;20463;-93
2022/09/21 09:23:45;;;;;;;1.90;1.30;;;15.20;99.90;;;;;;5051156;28;20484;-93
2022/09/21 09:27:05;;;;;;;1.93;1.40;;;15.30;99.90;;;;;;5047566;28;20461;-93
2022/09/21 09:30:01;;;;;;;4.10;1.77;;;15.40;99.90;;;;;;5046202;28;20483;-93
2022/09/21 09:35:54;;;;;;;2.20;1.30;;;15.70;99.90;;;;;;5044408;28;20511;-93
2022/09/21 09:38:49;;;;;;;3.20;1.83;;;15.90;99.90;;;;;;5044637;28;20455;-93
2022/09/21 09:42:01;;;;;;;1.93;1.17;;;16.10;99.90;;;;;;5044216;28;20441;-93
2022/09/21 09:45:11;;;;;;;1.93;1.30;;;16.10;99.90;;;;;;5044629;28;20491;-93
2022/09/21 09:54:14;;;;;;;1.43;1.17;;;16.00;99.90;;;;;;5043693;28;20993;-93
2022/09/21 09:59:41;;;;;;;2.00;1.30;;;16.20;99.90;;;;;;5038455;28;20533;-92
2022/09/21 10:02:59;;;;;;;1.73;1.00;;;16.40;99.90;;;;;;5026824;28;20465;-93
2022/09/21 10:06:18;;;;;;;1.13;1.03;;;16.60;99.90;;;;;;5042572;28;20501;-92
2022/09/21 10:15:10;;;;;;;1.43;1.10;;;17.10;99.90;;;;;;5034537;28;20476;-93
2022/09/21 10:17:41;;;;;;;1.67;1.13;;;17.20;99.90;;;;;;5045177;28;20461;-93
2022/09/21 10:23:16;;;;;;;1.47;1.20;;;16.90;99.90;;;;;;5044438;28;20534;-92
2022/09/21 10:25:46;;;;;;;1.30;1.10;;;16.70;99.90;;;;;;5051256;28;20564;-94
2022/09/21 11:15:33;;;;;;;1.60;1.30;;;16.50;99.90;;;;;;5009048;22;21022;-68
2022/09/21 11:18:11;;;;;;;1.57;0.87;;;17.00;99.90;;;;;;5011393;28;20512;-69
2022/09/21 11:20:46;;;;;;;1.40;1.10;;;17.30;99.90;;;;;;5011867;28;20877;-68
2022/09/21 11:23:23;;;;;;;3.00;1.20;;;17.70;99.90;;;;;;5010726;28;20882;-68
2022/09/21 11:26:00;;;;;;;2.23;1.57;;;18.00;99.90;;;;;;5011701;28;20462;-68
2022/09/21 11:28:33;;;;;;;1.63;1.07;;;18.20;99.90;;;;;;5010628;28;20462;-68
2022/09/21 11:31:22;;;;;;;2.80;1.10;;;18.30;99.90;;;;;;5011374;28;20493;-68
2022/09/21 11:34:04;;;;;;;1.47;1.00;;;18.20;99.90;;;;;;5010957;28;20497;-68
2022/09/21 11:36:38;;;;;;;1.03;0.93;;;18.40;99.90;;;;;;5011421;28;20459;-68
2022/09/21 11:39:23;;;;;;;1.17;1.07;;;18.50;99.90;;;;;;5011020;28;20472;-68
2022/09/21 11:42:05;;;;;;;1.00;0.90;;;18.70;99.90;;;;;;5010591;28;20466;-68
2022/09/21 11:44:46;;;;;;;3.10;1.03;;;18.80;99.90;;;;;;5010818;28;21005;-68
2022/09/21 11:47:25;;;;;;;1.47;1.00;;;18.90;99.90;;;;;;5011251;28;20458;-68
2022/09/21 11:50:18;;;;;;;1.50;1.27;;;18.90;99.90;;;;;;5010805;28;20544;-68
2022/09/21 11:52:55;;;;;;;1.17;1.07;;;19.00;99.90;;;;;;5010790;28;20520;-68
2022/09/21 11:55:43;;;;;;;1.40;1.13;;;19.10;99.90;;;;;;5011029;28;20832;-68
2022/09/21 11:58:22;;;;;;;1.67;1.07;;;19.20;99.90;;;;;;5010909;28;20461;-68
2022/09/21 12:01:00;;;;;;;1.23;1.13;;;19.20;99.90;;;;;;5010800;28;20460;-68
2022/09/21 12:06:22;;;;;;;1.50;1.23;;;19.10;99.90;;;;;;5009187;28;20498;-64
2022/09/21 12:09:07;;;;;;;1.67;1.30;;;19.20;99.90;;;;;;5010577;28;20466;-65
2022/09/21 12:11:39;;;;;;;1.47;1.17;;;19.30;99.90;;;;;;5010200;28;20497;-64
2022/09/21 12:14:18;;;;;;;1.80;1.17;;;19.40;99.90;;;;;;5010484;28;20993;-64
2022/09/21 12:16:53;;;;;;;1.03;0.93;;;19.20;99.90;;;;;;5010878;28;20470;-64
2022/09/21 12:19:30;;;;;;;1.13;1.00;;;19.00;99.90;;;;;;5010855;28;20473;-64
2022/09/21 12:22:06;;;;;;;2.17;0.90;;;19.10;99.90;;;;;;5010351;28;20462;-64
2022/09/21 12:24:37;;;;;;;1.57;1.13;;;19.00;99.90;;;;;;5010620;28;20488;-64
2022/09/21 12:27:11;;;;;;;1.30;1.00;;;19.10;99.90;;;;;;5010775;28;20891;-64
2022/09/21 12:29:46;;;;;;;1.00;0.80;;;19.10;99.90;;;;;;5010429;28;20465;-64
2022/09/21 12:32:19;;;;;;;1.00;0.90;;;19.10;99.90;;;;;;5010326;28;20851;-64
2022/09/21 12:34:51;;;;;;;1.10;0.90;;;19.20;99.90;;;;;;5010450;28;20489;-64
2022/09/21 12:37:25;;;;;;;2.67;1.40;;;19.40;99.90;;;;;;5010937;28;20497;-64
2022/09/21 12:39:57;;;;;;;1.47;1.00;;;19.10;99.70;;;;;;5011525;28;20462;-64
2022/09/21 12:42:30;;;;;;;1.40;1.00;;;19.00;99.90;;;;;;5014248;28;20475;-64
2022/09/21 12:45:05;;;;;;;1.60;1.23;;;19.10;99.90;;;;;;5014690;28;20846;-63
2022/09/21 12:47:47;;;;;;;1.37;1.00;;;19.20;99.90;;;;;;5014692;28;20559;-64
2022/09/21 12:50:20;;;;;;;1.90;1.10;;;19.30;99.90;;;;;;5014588;28;20492;-64
2022/09/21 12:52:49;;;;;;;1.07;0.83;;;19.40;99.60;;;;;;5013652;28;20512;-64
2022/09/21 12:55:44;;;;;;;1.40;0.90;;;19.30;99.90;;;;;;5014760;28;20583;-64
2022/09/21 12:58:24;;;;;;;1.63;1.13;;;19.30;99.90;;;;;;5014177;28;20946;-64
2022/09/21 13:01:00;;;;;;;1.30;0.97;;;19.50;99.90;;;;;;5014273;28;21012;-64
2022/09/21 13:03:32;;;;;;;1.20;1.00;;;19.70;99.90;;;;;;5013756;28;20513;-64
2022/09/21 13:06:25;;;;;;;1.33;1.03;;;19.90;99.90;;;;;;5014355;28;20457;-64
2022/09/21 13:08:53;;;;;;;1.50;1.00;;;19.80;99.90;;;;;;5013987;28;20465;-64
2022/09/21 13:11:21;;;;;;;1.10;0.97;;;19.60;99.90;;;;;;5013691;28;20492;-64
2022/09/21 13:13:51;;;;;;;1.20;0.87;;;19.40;99.90;;;;;;5013773;28;21018;-64
2022/09/21 13:16:29;;;;;;;2.60;1.10;;;19.10;99.80;;;;;;5014146;28;20953;-64
2022/09/21 13:18:59;;;;;;;0.90;0.77;;;18.90;99.90;;;;;;5013745;28;20472;-64
2022/09/21 13:21:28;;;;;;;1.03;0.90;;;18.90;99.90;;;;;;5013655;28;20461;-64
2022/09/21 13:23:57;;;;;;;1.10;1.00;;;19.00;99.90;;;;;;5013761;28;20896;-64
2022/09/21 13:26:35;;;;;;;2.73;1.07;;;19.10;99.50;;;;;;5013854;28;20470;-64
2022/09/21 13:29:28;;;;;;;3.60;1.60;;;19.10;98.40;;;;;;5013946;28;20995;-64
2022/09/21 13:31:58;;;;;;;3.17;1.47;;;19.20;99.70;;;;;;5013273;28;20493;-64
2022/09/21 13:34:28;;;;;;;1.87;1.10;;;19.30;98.90;;;;;;5013806;28;20488;-64
2022/09/21 13:37:33;;;;;;;2.27;1.00;;;19.30;98.90;;;;;;5013364;28;20957;-65
2022/09/21 13:40:42;;;;;;;6.17;1.80;;;19.30;99.60;;;;;;5013669;28;20847;-64
2022/09/21 13:43:24;;;;;;;0.80;0.70;;;19.20;99.40;;;;;;5012993;28;20486;-64
2022/09/21 13:45:58;;;;;;;0.93;0.83;;;19.20;99.70;;;;;;4991719;28;20508;-64
2022/09/21 13:48:32;;;;;;;1.37;0.90;;;19.20;99.60;;;;;;5013147;28;20462;-64
2022/09/21 13:51:05;;;;;;;0.80;0.70;;;19.10;98.20;;;;;;5013178;28;20490;-64
2022/09/21 13:53:38;;;;;;;1.90;1.10;;;18.90;99.10;;;;;;5012627;28;20482;-64
2022/09/21 13:56:16;;;;;;;1.67;1.00;;;18.80;99.60;;;;;;5013393;28;20466;-64
2022/09/21 13:58:46;;;;;;;2.03;0.90;;;18.90;99.90;;;;;;5012975;28;20470;-65
2022/09/21 14:01:17;;;;;;;3.77;0.90;;;19.10;99.70;;;;;;5013043;28;20462;-64
2022/09/21 14:03:49;;;;;;;1.03;0.93;;;18.90;97.80;;;;;;5012718;28;20488;-64
2022/09/21 14:06:19;;;;;;;1.10;1.00;;;19.00;98.70;;;;;;5013328;28;20906;-64
2022/09/21 14:08:53;;;;;;;1.00;0.87;;;19.10;99.50;;;;;;5012720;28;20458;-64
2022/09/21 14:11:27;;;;;;;1.37;1.10;;;19.20;99.50;;;;;;5012476;28;21083;-64
2022/09/21 14:14:05;;;;;;;1.00;0.90;;;19.40;99.90;;;;;;5012533;28;20485;-64
2022/09/21 14:16:54;;;;;;;2.80;0.90;;;19.50;99.50;;;;;;5012973;28;20467;-64
2022/09/21 14:20:07;;;;;;;2.50;1.07;;;19.50;99.50;;;;;;5012976;28;20969;-64
2022/09/21 14:22:44;;;;;;;1.00;0.90;;;19.30;97.70;;;;;;5012219;28;20982;-64
2022/09/21 14:25:27;;;;;;;2.40;1.00;;;19.10;99.30;;;;;;5012748;28;20467;-64
2022/09/21 14:28:00;;;;;;;1.10;1.00;;;18.80;99.20;;;;;;5012707;28;20460;-64
2022/09/21 14:30:31;;;;;;;1.63;1.13;;;18.50;99.10;;;;;;5012560;28;20462;-64
2022/09/21 14:33:10;;;;;;;1.20;1.10;;;18.10;98.70;;;;;;5012182;28;20552;-64
2022/09/21 14:35:39;;;;;;;1.20;1.00;;;18.00;98.70;;;;;;5012527;28;20976;-64
2022/09/21 14:38:18;;;;;;;0.93;0.83;;;17.80;98.30;;;;;;5012573;28;20484;-64
2022/09/21 14:40:47;;;;;;;2.03;1.10;;;17.50;98.90;;;;;;5012290;28;20462;-64
2022/09/21 14:43:19;;;;;;;0.90;0.80;;;17.30;98.70;;;;;;5011751;28;20490;-65
2022/09/21 14:46:01;;;;;;;2.40;1.10;;;17.10;99.00;;;;;;5011955;28;20469;-64
2022/09/21 14:48:37;;;;;;;1.17;0.97;;;16.80;98.70;;;;;;5012392;28;20488;-63
2022/09/21 14:51:13;;;;;;;0.93;0.80;;;16.50;99.30;;;;;;5012126;28;20484;-64
2022/09/21 14:54:21;;;;;;;1.40;1.30;;;16.30;99.90;;;;;;5012103;28;20481;-64
2022/09/21 14:56:59;;;;;;;1.10;0.90;;;16.20;99.90;;;;;;5012229;28;20473;-64
2022/09/21 14:59:46;;;;;;;1.00;0.90;;;16.10;99.90;;;;;;5010927;28;20459;-63
2022/09/21 15:02:19;;;;;;;1.03;0.90;;;15.90;99.90;;;;;;5011829;28;20199;-63
2022/09/21 15:04:57;;;;;;;0.93;0.83;;;16.10;99.90;;;;;;5010608;28;20494;-63
2022/09/21 15:13:19;;;;;;;2.03;1.50;;;17.00;99.90;;;;;;5011014;28;20975;-64
2022/09/21 15:15:57;;;;;;;1.10;1.00;;;17.20;99.90;;;;;;5011393;28;20508;-64
2022/09/21 15:18:24;;;;;;;1.70;1.20;;;17.30;99.90;;;;;;5009648;28;20458;-64
2022/09/21 15:21:00;;;;;;;3.70;2.93;;;17.50;99.90;;;;;;5005713;28;20460;-64
2022/09/21 15:23:28;;;;;;;2.13;1.93;;;17.50;99.10;;;;;;5005437;28;20524;-64
2022/09/21 15:26:02;;;;;;;1.40;1.30;;;17.50;98.50;;;;;;5006693;28;20492;-64
2022/09/21 15:28:35;;;;;;;0.90;0.80;;;17.50;99.80;;;;;;5005902;28;20472;-63
2022/09/21 15:31:02;;;;;;;1.00;0.90;;;17.30;98.10;;;;;;5005710;28;20497;-64
2022/09/21 15:33:30;;;;;;;1.47;1.00;;;17.00;98.50;;;;;;5005167;28;20486;-64
2022/09/21 15:36:01;;;;;;;1.93;1.30;;;16.70;98.60;;;;;;5006247;28;20569;-64
2022/09/21 15:38:29;;;;;;;2.07;1.10;;;16.40;99.20;;;;;;5005587;28;20465;-64
2022/09/21 15:40:57;;;;;;;1.97;1.27;;;16.40;99.10;;;;;;5006905;28;20454;-66
2022/09/21 15:43:25;;;;;;;1.63;1.10;;;16.50;99.60;;;;;;5006429;28;20577;-65
2022/09/21 15:45:54;;;;;;;2.83;1.10;;;16.70;99.80;;;;;;5005712;28;20470;-65
2022/09/21 15:48:21;;;;;;;1.00;0.80;;;16.80;99.60;;;;;;5005826;28;20465;-65
2022/09/21 15:50:52;;;;;;;1.10;0.90;;;16.80;99.20;;;;;;5006619;28;20470;-66